createdAt,value
2022-10-19T00:01:08.581Z,99104.47
2022-10-19T00:03:36.288Z,99106.38
2022-10-19T00:06:13.750Z,99106.53
2022-10-19T00:08:40.467Z,99102.16
2022-10-19T00:11:07.469Z,99097.78
2022-10-19T00:13:34.104Z,99094.84
2022-10-19T00:16:00.660Z,99101.91
2022-10-19T00:18:27.243Z,99098.72
2022-10-19T00:21:01.980Z,99099.34
2022-10-19T00:23:28.388Z,99103.38
2022-10-19T00:25:56.209Z,99100.63
2022-10-19T00:28:22.945Z,99101.75
2022-10-19T00:33:22.529Z,99108.41
2022-10-19T00:35:50.836Z,99117.81
2022-10-19T00:38:19.137Z,99111.06
2022-10-19T00:40:46.531Z,99117.72
2022-10-19T00:43:15.866Z,99115.84
2022-10-19T00:45:42.802Z,99116.84
2022-10-19T00:48:13.224Z,99111.75
2022-10-19T00:50:40.779Z,99111.22
2022-10-19T00:53:07.325Z,99111.94
2022-10-19T00:55:34.713Z,99106.94
2022-10-19T00:58:03.072Z,99101.56
2022-10-19T01:00:29.996Z,99095.44
2022-10-19T01:02:59.044Z,99096.97
2022-10-19T01:05:26.472Z,99094.81
2022-10-19T01:07:53.931Z,99089.53
2022-10-19T01:10:25.211Z,99089.41
2022-10-19T01:13:14.887Z,99084.81
2022-10-19T01:16:01.632Z,99084.88
2022-10-19T01:18:45.296Z,99086.50
2022-10-19T01:21:21.723Z,99088.38
2022-10-19T01:24:07.057Z,99086.50
2022-10-19T01:26:52.404Z,99081.13
2022-10-19T01:29:52.846Z,99085.19
2022-10-19T01:32:38.214Z,99093.66
2022-10-19T01:35:17.031Z,99081.28
2022-10-19T01:37:59.252Z,99074.38
2022-10-19T01:40:42.705Z,99057.53
2022-10-19T01:43:23.171Z,99060.53
2022-10-19T01:45:55.519Z,99070.03
2022-10-19T01:48:35.524Z,99076.41
2022-10-19T01:51:06.293Z,99095.53
2022-10-19T01:53:40.393Z,99088.06
2022-10-19T01:56:08.692Z,99095.19
2022-10-19T01:58:38.769Z,99096.16
2022-10-19T02:01:09.174Z,99088.56
2022-10-19T02:03:37.534Z,99105.00
2022-10-19T02:06:06.473Z,99098.25
2022-10-19T02:08:53.138Z,99092.25
2022-10-19T02:11:21.945Z,99098.25
2022-10-19T02:14:04.509Z,99094.06
2022-10-19T02:16:38.754Z,99102.66
2022-10-19T02:19:08.777Z,99104.34
2022-10-19T02:21:35.558Z,99098.34
2022-10-19T02:24:02.043Z,99102.47
2022-10-19T02:26:28.627Z,99101.66
2022-10-19T02:28:56.664Z,99098.41
2022-10-19T02:31:24.421Z,99085.16
2022-10-19T02:33:51.524Z,99088.38
2022-10-19T02:36:18.740Z,99087.59
2022-10-19T02:38:45.373Z,99093.47
2022-10-19T02:41:22.048Z,99090.81
2022-10-19T02:43:52.983Z,99100.19
2022-10-19T02:46:49.791Z,99108.81
2022-10-19T02:49:16.869Z,99107.50
2022-10-19T02:52:01.605Z,99116.13
2022-10-19T02:54:29.085Z,99113.91
2022-10-19T02:56:56.583Z,99115.00
2022-10-19T02:59:23.933Z,99116.78
2022-10-19T03:01:50.863Z,99120.28
2022-10-19T03:04:17.689Z,99128.06
2022-10-19T03:06:44.424Z,99127.97
2022-10-19T03:09:10.968Z,99124.53
2022-10-19T03:11:37.577Z,99116.78
2022-10-19T03:14:04.123Z,99114.72
2022-10-19T03:16:30.686Z,99110.31
2022-10-19T03:18:57.216Z,99112.94
2022-10-19T03:21:23.917Z,99113.94
2022-10-19T03:23:50.462Z,99103.00
2022-10-19T03:26:18.007Z,99100.13
2022-10-19T03:28:44.669Z,99101.00
2022-10-19T03:31:11.859Z,99097.38
2022-10-19T03:33:38.505Z,99101.66
2022-10-19T03:36:23.811Z,99107.53
2022-10-19T03:38:51.930Z,99103.16
2022-10-19T03:41:19.981Z,99111.00
2022-10-19T03:43:46.687Z,99093.81
2022-10-19T03:46:13.453Z,99098.16
2022-10-19T03:48:40.087Z,99098.22
2022-10-19T03:51:09.277Z,99099.06
2022-10-19T03:53:36.634Z,99092.34
2022-10-19T03:56:15.284Z,99102.56
2022-10-19T03:58:43.025Z,99102.47
2022-10-19T04:01:12.304Z,99114.72
2022-10-19T04:03:39.101Z,99122.69
2022-10-19T04:06:26.756Z,99110.53
2022-10-19T04:08:53.785Z,99108.81
2022-10-19T04:11:26.592Z,99110.50
2022-10-19T04:13:54.778Z,99118.47
2022-10-19T04:16:23.125Z,99111.50
2022-10-19T04:18:49.916Z,99110.59
2022-10-19T04:21:28.393Z,99115.94
2022-10-19T04:24:01.569Z,99119.44
2022-10-19T04:26:28.249Z,99116.78
2022-10-19T04:28:57.997Z,99118.50
2022-10-19T04:31:25.127Z,99122.78
2022-10-19T04:33:51.714Z,99121.31
2022-10-19T04:36:18.373Z,99105.72
2022-10-19T04:38:44.996Z,99108.38
2022-10-19T04:41:13.786Z,99101.63
2022-10-19T04:43:40.830Z,99116.09
2022-10-19T04:46:14.325Z,99112.63
2022-10-19T04:48:41.678Z,99116.97
2022-10-19T04:51:09.249Z,99112.78
2022-10-19T04:53:38.158Z,99121.34
2022-10-19T04:56:06.958Z,99122.38
2022-10-19T04:58:34.312Z,99119.09
2022-10-19T05:01:07.972Z,99108.97
2022-10-19T05:03:34.540Z,99107.38
2022-10-19T05:06:01.084Z,99109.75
2022-10-19T05:08:27.613Z,99095.94
2022-10-19T05:10:54.211Z,99094.13
2022-10-19T05:13:20.902Z,99092.44
2022-10-19T05:15:58.149Z,99100.03
2022-10-19T05:18:24.915Z,99107.78
2022-10-19T05:20:51.644Z,99112.03
2022-10-19T05:23:18.196Z,99113.66
2022-10-19T05:25:44.893Z,99108.63
2022-10-19T05:28:11.622Z,99115.50
2022-10-19T05:30:39.282Z,99112.25
2022-10-19T05:33:05.932Z,99126.94
2022-10-19T05:35:32.533Z,99123.28
2022-10-19T05:37:59.073Z,99126.78
2022-10-19T05:40:25.591Z,99134.28
2022-10-19T05:42:52.124Z,99136.72
2022-10-19T05:45:18.747Z,99126.47
2022-10-19T05:47:45.267Z,99133.16
2022-10-19T05:50:11.794Z,99136.56
2022-10-19T05:52:38.312Z,99143.13
2022-10-19T05:55:05.386Z,99140.91
2022-10-19T05:57:32.990Z,99132.03
2022-10-19T05:59:59.871Z,99127.75
2022-10-19T06:02:26.385Z,99132.03
2022-10-19T06:04:52.998Z,99137.19
2022-10-19T06:07:19.543Z,99133.53
2022-10-19T06:09:46.211Z,99135.00
2022-10-19T06:12:13.496Z,99135.88
2022-10-19T06:14:42.526Z,99135.88
2022-10-19T06:17:09.322Z,99133.28
2022-10-19T06:19:35.976Z,99135.00
2022-10-19T06:22:02.644Z,99134.91
2022-10-19T06:24:29.178Z,99137.63
2022-10-19T06:26:55.886Z,99143.75
2022-10-19T06:29:22.400Z,99144.56
2022-10-19T06:31:48.949Z,99153.22
2022-10-19T06:34:15.687Z,99149.81
2022-10-19T06:36:42.269Z,99143.84
2022-10-19T06:39:09.494Z,99159.31
2022-10-19T06:41:36.153Z,99151.97
2022-10-19T06:44:02.779Z,99159.63
2022-10-19T06:46:29.400Z,99158.03
2022-10-19T06:49:01.579Z,99161.44
2022-10-19T06:51:30.498Z,99172.53
2022-10-19T06:53:57.640Z,99172.38
2022-10-19T06:56:25.076Z,99168.56
2022-10-19T06:58:52.034Z,99178.88
2022-10-19T07:01:18.758Z,99183.13
2022-10-19T07:03:45.700Z,99177.59
2022-10-19T07:06:13.646Z,99181.41
2022-10-19T07:08:41.753Z,99181.59
2022-10-19T07:11:16.515Z,99183.44
2022-10-19T07:13:43.410Z,99185.56
2022-10-19T07:16:16.007Z,99186.38
2022-10-19T07:18:47.006Z,99195.44
2022-10-19T07:21:16.197Z,99192.94
2022-10-19T07:23:44.998Z,99195.41
2022-10-19T07:26:23.836Z,99199.78
2022-10-19T07:28:51.418Z,99212.84
2022-10-19T07:31:21.344Z,99207.88
2022-10-19T07:33:51.942Z,99209.63
2022-10-19T07:36:18.478Z,99207.00
2022-10-19T07:38:45.035Z,99201.84
2022-10-19T07:41:16.791Z,99210.63
2022-10-19T07:43:45.237Z,99203.25
2022-10-19T07:46:20.376Z,99212.13
2022-10-19T07:48:47.502Z,99201.66
2022-10-19T07:51:15.940Z,99206.84
2022-10-19T07:53:43.521Z,99201.97
2022-10-19T07:56:19.287Z,99204.03
2022-10-19T07:58:46.363Z,99192.75
2022-10-19T08:01:15.766Z,99191.03
2022-10-19T08:04:42.778Z,99199.53
2022-10-19T08:06:29.572Z,99200.69
2022-10-19T08:08:56.650Z,99202.06
2022-10-19T08:11:26.406Z,99198.16
2022-10-19T08:13:53.941Z,99194.13
2022-10-19T08:16:25.089Z,99195.25
2022-10-19T08:18:53.111Z,99186.56
2022-10-19T08:21:19.732Z,99203.22
2022-10-19T08:23:46.237Z,99184.72
2022-10-19T08:26:12.850Z,99182.81
2022-10-19T08:28:39.660Z,99182.75
2022-10-19T08:31:22.256Z,99179.19
2022-10-19T08:33:50.850Z,99175.69
2022-10-19T08:36:19.712Z,99178.50
2022-10-19T08:38:48.436Z,99172.22
2022-10-19T08:41:39.895Z,99183.94
2022-10-19T08:44:15.250Z,99177.94
2022-10-19T08:47:06.113Z,99184.84
2022-10-19T08:49:35.285Z,99178.75
2022-10-19T08:52:11.474Z,99173.19
2022-10-19T08:57:33.737Z,99162.88
2022-10-19T09:00:15.406Z,99161.13
2022-10-19T09:03:09.762Z,99159.38
2022-10-19T09:05:52.970Z,99155.41
2022-10-19T09:08:20.722Z,99152.50
2022-10-19T09:10:50.565Z,99159.00
2022-10-19T09:14:00.436Z,99158.38
2022-10-19T09:16:29.078Z,99155.47
2022-10-19T09:18:55.717Z,99158.47
2022-10-19T09:21:34.443Z,99155.78
2022-10-19T09:24:25.015Z,99165.00
2022-10-19T09:26:53.885Z,99167.41
2022-10-19T09:29:28.775Z,99165.28
2022-10-19T09:34:36.784Z,99166.50
2022-10-19T09:37:06.012Z,99168.94
2022-10-19T09:39:32.851Z,99169.59
2022-10-19T09:42:01.211Z,99173.22
2022-10-19T09:44:27.862Z,99173.84
2022-10-19T09:47:13.789Z,99184.78
2022-10-19T09:49:46.300Z,99184.69
2022-10-19T09:52:35.957Z,99177.84
2022-10-19T09:55:14.717Z,99171.66
2022-10-19T09:57:58.543Z,99179.50
2022-10-19T10:00:31.664Z,99176.41
2022-10-19T10:02:58.256Z,99165.03
2022-10-19T10:05:33.885Z,99172.16
2022-10-19T10:08:00.832Z,99170.31
2022-10-19T10:10:39.485Z,99175.38
2022-10-19T10:13:06.421Z,99175.75
2022-10-19T10:15:43.642Z,99166.22
2022-10-19T10:18:15.587Z,99161.13
2022-10-19T10:20:59.261Z,99165.69
2022-10-19T10:23:29.297Z,99166.34
2022-10-19T10:25:57.854Z,99161.84
2022-10-19T10:28:27.045Z,99156.13
2022-10-19T10:31:08.878Z,99152.91
2022-10-19T10:33:45.161Z,99153.03
2022-10-19T10:36:13.188Z,99151.66
2022-10-19T10:38:45.690Z,99149.00
2022-10-19T10:41:18.652Z,99145.38
2022-10-19T10:43:53.824Z,99146.59
2022-10-19T10:46:28.325Z,99146.75
2022-10-19T10:49:15.631Z,99156.59
2022-10-19T10:51:54.038Z,99133.81
2022-10-19T10:54:23.760Z,99132.44
2022-10-19T10:57:19.988Z,99140.75
2022-10-19T11:00:15.550Z,99141.00
2022-10-19T11:02:52.160Z,99130.34
2022-10-19T11:05:26.588Z,99134.28
2022-10-19T11:08:04.835Z,99122.63
2022-10-19T11:10:31.406Z,99122.34
2022-10-19T11:13:24.171Z,99136.00
2022-10-19T11:15:57.485Z,99134.03
2022-10-19T11:18:46.128Z,99117.53
2022-10-19T11:21:15.679Z,99121.28
2022-10-19T11:24:02.293Z,99123.09
2022-10-19T11:26:58.180Z,99118.41
2022-10-19T11:29:38.256Z,99112.66
2022-10-19T11:32:14.475Z,99124.44
2022-10-19T11:35:20.840Z,99121.25
2022-10-19T11:38:17.988Z,99122.34
2022-10-19T11:40:54.234Z,99114.59
2022-10-19T11:43:38.996Z,99113.47
2022-10-19T11:46:45.696Z,99113.84
2022-10-19T11:52:54.744Z,99104.56
2022-10-19T11:55:51.288Z,99101.72
2022-10-19T11:58:57.750Z,99107.78
2022-10-19T12:01:46.014Z,99094.81
2022-10-19T12:04:24.759Z,99090.75
2022-10-19T12:07:10.845Z,99086.78
2022-10-19T12:09:55.444Z,99087.94
2022-10-19T12:12:36.206Z,99078.84
2022-10-19T12:15:26.238Z,99078.66
2022-10-19T12:17:56.170Z,99061.31
2022-10-19T12:20:42.319Z,99058.28
2022-10-19T12:23:25.852Z,99063.59
2022-10-19T12:25:55.670Z,99066.56
2022-10-19T12:28:28.053Z,99067.94
2022-10-19T12:30:55.751Z,99064.41
2022-10-19T12:33:37.248Z,99054.41
2022-10-19T12:36:11.600Z,99059.28
2022-10-19T12:38:50.734Z,99057.59
2022-10-19T12:41:33.053Z,99051.53
2022-10-19T12:44:02.740Z,99055.47
2022-10-19T12:46:38.116Z,99058.56
2022-10-19T12:49:26.595Z,99055.63
2022-10-19T12:51:54.811Z,99048.06
2022-10-19T12:54:26.026Z,99054.44
2022-10-19T12:56:55.978Z,99067.09
2022-10-19T12:59:35.014Z,99066.97
2022-10-19T13:02:04.925Z,99062.50
2022-10-19T13:04:34.426Z,99066.91
2022-10-19T13:07:05.129Z,99062.22
2022-10-19T13:09:41.930Z,99067.31
2022-10-19T13:12:33.167Z,99071.59
2022-10-19T13:15:02.259Z,99071.34
2022-10-19T13:17:51.004Z,99075.69
2022-10-19T13:20:17.503Z,99069.47
2022-10-19T13:22:50.387Z,99077.78
2022-10-19T13:25:19.501Z,99074.34
2022-10-19T13:27:53.881Z,99075.91
2022-10-19T13:30:35.726Z,99078.63
2022-10-19T13:33:31.617Z,99076.50
2022-10-19T13:36:04.391Z,99078.44
2022-10-19T13:38:39.000Z,99081.03
2022-10-19T13:41:28.029Z,99079.94
2022-10-19T13:44:18.253Z,99077.09
2022-10-19T13:47:00.819Z,99084.25
2022-10-19T13:49:43.378Z,99087.88
2022-10-19T13:52:43.523Z,99085.50
2022-10-19T13:55:16.041Z,99091.19
2022-10-19T13:58:04.229Z,99082.84
2022-10-19T14:00:47.779Z,99077.91
2022-10-19T14:03:20.576Z,99081.91
2022-10-19T14:06:27.692Z,99074.50
2022-10-19T14:09:25.661Z,99087.19
2022-10-19T14:11:54.540Z,99079.28
2022-10-19T14:14:24.238Z,99079.91
2022-10-19T14:17:01.451Z,99081.44
2022-10-19T14:19:43.684Z,99077.97
2022-10-19T14:22:40.693Z,99085.34
2022-10-19T14:25:18.307Z,99096.38
2022-10-19T14:27:54.061Z,99085.25
2022-10-19T14:30:21.693Z,99083.97
2022-10-19T14:32:48.419Z,99093.31
2022-10-19T14:35:30.839Z,99085.13
2022-10-19T14:37:58.748Z,99090.13
2022-10-19T14:40:28.657Z,99092.78
2022-10-19T14:42:57.248Z,99092.97
2022-10-19T14:45:27.117Z,99091.66
2022-10-19T14:48:17.718Z,99086.28
2022-10-19T14:50:51.544Z,99094.13
2022-10-19T14:53:36.218Z,99093.59
2022-10-19T14:56:32.919Z,99092.91
2022-10-19T14:59:03.386Z,99103.56
2022-10-19T15:01:30.225Z,99110.13
2022-10-19T15:03:56.941Z,99096.31
2022-10-19T15:06:30.551Z,99097.81
2022-10-19T15:09:04.131Z,99105.25
2022-10-19T15:11:37.924Z,99102.28
2022-10-19T15:14:22.166Z,99099.03
2022-10-19T15:16:56.935Z,99107.69
2022-10-19T15:19:26.223Z,99099.09
2022-10-19T15:22:12.869Z,99104.94
2022-10-19T15:24:40.493Z,99102.28
2022-10-19T15:27:19.629Z,99105.75
2022-10-19T15:30:00.376Z,99101.75
2022-10-19T15:32:35.719Z,99100.16
2022-10-19T15:35:18.515Z,99100.63
2022-10-19T15:37:49.450Z,99115.81
2022-10-19T15:40:29.664Z,99108.50
2022-10-19T15:42:56.497Z,99121.38
2022-10-19T15:45:38.676Z,99123.44
2022-10-19T15:48:11.224Z,99119.88
2022-10-19T15:50:42.672Z,99122.16
2022-10-19T15:53:10.701Z,99122.34
2022-10-19T15:55:37.718Z,99126.69
2022-10-19T15:58:04.265Z,99125.06
2022-10-19T16:00:31.041Z,99127.22
2022-10-19T16:02:57.583Z,99133.78
2022-10-19T16:05:24.489Z,99135.41
2022-10-19T16:07:51.255Z,99145.97
2022-10-19T16:10:21.944Z,99137.47
2022-10-19T16:12:48.550Z,99139.81
2022-10-19T16:15:22.495Z,99138.28
2022-10-19T16:17:52.257Z,99140.00
2022-10-19T16:20:19.569Z,99146.75
2022-10-19T16:22:47.492Z,99146.81
2022-10-19T16:25:14.587Z,99145.34
2022-10-19T16:27:41.194Z,99153.34
2022-10-19T16:30:08.413Z,99152.78
2022-10-19T16:32:35.135Z,99151.19
2022-10-19T16:35:01.710Z,99160.66
2022-10-19T16:37:28.342Z,99161.66
2022-10-19T16:39:54.836Z,99165.19
2022-10-19T16:42:22.300Z,99164.66
2022-10-19T16:44:49.535Z,99162.97
2022-10-19T16:47:17.136Z,99169.09
2022-10-19T16:49:43.706Z,99169.16
2022-10-19T16:52:14.107Z,99170.03
2022-10-19T16:54:40.851Z,99167.72
2022-10-19T16:57:10.075Z,99161.75
2022-10-19T16:59:36.806Z,99169.81
2022-10-19T17:02:03.427Z,99169.06
2022-10-19T17:04:29.945Z,99170.03
2022-10-19T17:06:57.645Z,99170.00
2022-10-19T17:12:12.848Z,99171.84
2022-10-19T17:14:41.475Z,99165.91
2022-10-19T17:17:09.699Z,99170.38
2022-10-19T17:19:37.509Z,99170.47
2022-10-19T17:22:05.433Z,99177.44
2022-10-19T17:24:32.320Z,99183.56
2022-10-19T17:27:01.462Z,99180.22
2022-10-19T17:29:27.996Z,99183.53
2022-10-19T17:31:54.546Z,99186.84
2022-10-19T17:34:21.087Z,99188.69
2022-10-19T17:36:47.969Z,99193.22
2022-10-19T17:39:18.316Z,99188.09
2022-10-19T17:41:46.960Z,99191.72
2022-10-19T17:44:14.164Z,99188.25
2022-10-19T17:46:41.110Z,99192.66
2022-10-19T17:49:07.866Z,99197.00
2022-10-19T17:51:36.225Z,99191.91
2022-10-19T17:54:08.670Z,99202.22
2022-10-19T17:56:36.250Z,99193.56
2022-10-19T17:59:03.295Z,99197.19
2022-10-19T18:01:30.488Z,99195.38
2022-10-19T18:03:57.179Z,99194.53
2022-10-19T18:06:29.618Z,99202.28
2022-10-19T18:08:57.225Z,99197.88
2022-10-19T18:11:32.402Z,99204.88
2022-10-19T18:14:00.887Z,99199.84
2022-10-19T18:16:30.654Z,99196.47
2022-10-19T18:18:59.284Z,99200.69
2022-10-19T18:21:35.988Z,99194.75
2022-10-19T18:24:03.181Z,99197.34
2022-10-19T18:26:32.288Z,99203.34
2022-10-19T18:29:00.299Z,99195.66
2022-10-19T18:31:31.622Z,99204.25
2022-10-19T18:34:04.813Z,99206.94
2022-10-19T18:36:32.586Z,99211.25
2022-10-19T18:39:01.804Z,99206.88
2022-10-19T18:41:29.752Z,99215.56
2022-10-19T18:44:03.763Z,99211.25
2022-10-19T18:46:30.801Z,99211.25
2022-10-19T18:48:57.380Z,99218.16
2022-10-19T18:51:24.332Z,99225.09
2022-10-19T18:53:51.015Z,99219.84
2022-10-19T18:56:20.128Z,99216.50
2022-10-19T18:58:47.407Z,99218.13
2022-10-19T19:01:15.791Z,99225.09
2022-10-19T19:03:44.560Z,99222.53
2022-10-19T19:06:20.170Z,99230.34
2022-10-19T19:08:47.690Z,99239.78
2022-10-19T19:11:17.095Z,99238.19
2022-10-19T19:13:51.597Z,99244.13
2022-10-19T19:16:19.200Z,99246.78
2022-10-19T19:18:46.476Z,99252.03
2022-10-19T19:21:19.492Z,99261.47
2022-10-19T19:23:46.365Z,99260.72
2022-10-19T19:26:13.565Z,99266.66
2022-10-19T19:28:41.894Z,99270.06
2022-10-19T19:31:10.727Z,99271.88
2022-10-19T19:33:38.602Z,99272.00
2022-10-19T19:36:06.888Z,99265.28
2022-10-19T19:38:34.107Z,99273.84
2022-10-19T19:41:04.570Z,99278.25
2022-10-19T19:43:33.314Z,99267.97
2022-10-19T19:46:04.628Z,99271.44
2022-10-19T19:48:34.714Z,99265.50
2022-10-19T19:51:01.364Z,99275.88
2022-10-19T19:53:27.871Z,99274.06
2022-10-19T19:55:54.421Z,99278.44
2022-10-19T19:58:21.083Z,99280.19
2022-10-19T20:00:47.721Z,99280.25
2022-10-19T20:03:14.388Z,99277.47
2022-10-19T20:05:41.112Z,99278.22
2022-10-19T20:08:08.570Z,99285.16
2022-10-19T20:10:39.684Z,99274.78
2022-10-19T20:13:06.449Z,99282.56
2022-10-19T20:15:33.588Z,99292.03
2022-10-19T20:18:00.163Z,99288.66
2022-10-19T20:20:26.775Z,99293.88
2022-10-19T20:22:53.494Z,99300.81
2022-10-19T20:25:20.044Z,99293.09
2022-10-19T20:27:46.590Z,99300.00
2022-10-19T20:30:13.210Z,99295.75
2022-10-19T20:32:39.972Z,99303.53
2022-10-19T20:35:07.621Z,99293.19
2022-10-19T20:37:34.665Z,99290.69
2022-10-19T20:40:08.174Z,99294.16
2022-10-19T20:42:35.424Z,99292.41
2022-10-19T20:45:02.202Z,99289.94
2022-10-19T20:47:28.764Z,99287.25
2022-10-19T20:49:55.364Z,99289.00
2022-10-19T20:52:21.934Z,99286.50
2022-10-19T20:54:49.341Z,99283.09
2022-10-19T20:57:15.910Z,99280.50
2022-10-19T20:59:44.003Z,99287.50
2022-10-19T21:02:11.014Z,99294.28
2022-10-19T21:04:37.622Z,99287.41
2022-10-19T21:07:05.101Z,99291.66
2022-10-19T21:09:32.246Z,99296.91
2022-10-19T21:11:58.976Z,99297.06
2022-10-19T21:14:28.881Z,99303.06
2022-10-19T21:17:02.248Z,99303.09
2022-10-19T21:19:30.172Z,99293.75
2022-10-19T21:22:02.234Z,99294.59
2022-10-19T21:24:34.122Z,99296.31
2022-10-19T21:27:02.449Z,99293.63
2022-10-19T21:29:29.326Z,99299.69
2022-10-19T21:31:56.151Z,99304.81
2022-10-19T21:34:25.918Z,99300.59
2022-10-19T21:36:53.436Z,99303.19
2022-10-19T21:39:20.454Z,99301.50
2022-10-19T21:41:48.052Z,99294.56
2022-10-19T21:44:16.221Z,99305.94
2022-10-19T21:46:45.832Z,99303.31
2022-10-19T21:49:12.818Z,99309.44
2022-10-19T21:51:46.496Z,99303.47
2022-10-19T21:54:15.840Z,99311.25
2022-10-19T21:56:43.431Z,99303.47
2022-10-19T21:59:10.269Z,99311.25
2022-10-19T22:01:40.159Z,99301.06
2022-10-19T22:04:11.983Z,99303.75
2022-10-19T22:06:38.852Z,99304.59
2022-10-19T22:09:07.569Z,99313.13
2022-10-19T22:11:34.319Z,99317.44
2022-10-19T22:14:03.017Z,99321.78
2022-10-19T22:16:31.448Z,99311.50
2022-10-19T22:18:58.140Z,99310.69
2022-10-19T22:21:28.265Z,99313.28
2022-10-19T22:24:07.146Z,99316.78
2022-10-19T22:26:39.601Z,99315.09
2022-10-19T22:29:07.048Z,99313.34
2022-10-19T22:31:34.803Z,99312.50
2022-10-19T22:34:07.684Z,99325.38
2022-10-19T22:36:34.803Z,99327.19
2022-10-19T22:39:01.604Z,99327.13
2022-10-19T22:41:28.123Z,99321.19
2022-10-19T22:43:54.594Z,99318.53
2022-10-19T22:46:21.073Z,99315.09
2022-10-19T22:48:47.582Z,99316.81
2022-10-19T22:51:14.239Z,99314.22
2022-10-19T22:53:40.831Z,99328.81
2022-10-19T22:56:08.160Z,99320.25
2022-10-19T22:58:34.623Z,99327.19
2022-10-19T23:01:04.406Z,99332.44
2022-10-19T23:03:30.976Z,99330.75
2022-10-19T23:05:58.560Z,99328.13
2022-10-19T23:08:25.627Z,99333.31
2022-10-19T23:10:52.497Z,99335.91
2022-10-19T23:13:19.054Z,99338.47
2022-10-19T23:15:45.883Z,99336.78
2022-10-19T23:18:13.599Z,99340.28
2022-10-19T23:20:40.261Z,99342.88
2022-10-19T23:23:07.710Z,99339.44
2022-10-19T23:25:34.456Z,99338.59
2022-10-19T23:28:01.049Z,99345.53
2022-10-19T23:30:27.525Z,99339.47
2022-10-19T23:32:54.067Z,99341.22
2022-10-19T23:35:20.508Z,99344.66
2022-10-19T23:37:47.010Z,99341.25
2022-10-19T23:40:13.470Z,99342.25
2022-10-19T23:42:40.008Z,99343.06
2022-10-19T23:45:07.095Z,99334.50
2022-10-19T23:47:33.861Z,99331.09
2022-10-19T23:50:00.625Z,99332.84
2022-10-19T23:52:27.142Z,99331.13
2022-10-19T23:54:53.684Z,99338.88
2022-10-19T23:57:20.235Z,99337.97
2022-10-19T23:59:46.772Z,99339.72
